Time;durP1;ratioP1;P1;durP2;ratioP2;P2;SDS_P1;SDS_P2;PMS_P1;PMS_P2;Temp;Humidity;BMP_temperature;BMP_pressure;BME280_temperature;BME280_humidity;BME280_pressure;Samples;Min_cycle;Max_cycle;Signal;HPM_P1;HPM_P2
2023/12/21 00:02:08;;;;;;;22.70;4.63;;;;;;;;;;4787895;29;20060;-94
2023/12/21 00:04:35;;;;;;;18.20;3.65;;;;;;;;;;4761902;30;20219;-94
2023/12/21 00:07:02;;;;;;;19.30;4.18;;;;;;;;;;4776631;30;20051;-92
2023/12/21 00:09:28;;;;;;;12.63;3.42;;;;;;;;;;4739545;30;20074;-93
2023/12/21 00:12:02;;;;;;;14.65;3.97;;;;;;;;;;4753631;30;20057;-93
2023/12/21 00:14:30;;;;;;;18.83;3.75;;;;;;;;;;4755334;30;20064;-94
2023/12/21 00:16:57;;;;;;;12.05;3.95;;;;;;;;;;4719357;30;20049;-94
2023/12/21 00:19:23;;;;;;;15.70;3.72;;;;;;;;;;4716286;30;20411;-92
2023/12/21 00:21:49;;;;;;;14.98;2.95;;;;;;;;;;4715226;30;20064;-92
2023/12/21 00:24:16;;;;;;;7.03;3.15;;;;;;;;;;4720032;30;20141;-92
2023/12/21 00:26:45;;;;;;;16.00;4.07;;;;;;;;;;4724294;30;20070;-91
2023/12/21 00:29:13;;;;;;;11.05;3.05;;;;;;;;;;4747833;30;20059;-93
2023/12/21 00:31:39;;;;;;;21.48;3.55;;;;;;;;;;4750408;30;20066;-92
2023/12/21 00:34:06;;;;;;;15.35;3.47;;;;;;;;;;4749912;30;20632;-92
2023/12/21 00:36:32;;;;;;;14.15;4.57;;;;;;;;;;4765486;29;20050;-93
2023/12/21 00:38:58;;;;;;;17.50;3.75;;;;;;;;;;4802501;29;20065;-93
2023/12/21 00:41:24;;;;;;;14.77;4.32;;;;;;;;;;4784243;29;20107;-92
2023/12/21 00:43:50;;;;;;;11.30;4.22;;;;;;;;;;4792838;29;20116;-94
2023/12/21 00:46:17;;;;;;;21.23;4.85;;;;;;;;;;4779330;29;20046;-96
2023/12/21 00:48:43;;;;;;;23.30;3.60;;;;;;;;;;4800520;29;20151;-96
2023/12/21 00:51:09;;;;;;;15.02;3.75;;;;;;;;;;4814817;29;20064;-93
2023/12/21 00:53:36;;;;;;;16.30;3.92;;;;;;;;;;4816323;29;20054;-96
2023/12/21 00:56:02;;;;;;;8.57;3.58;;;;;;;;;;4818020;29;20666;-96
2023/12/21 00:58:28;;;;;;;16.25;3.83;;;;;;;;;;4821155;29;20061;-96
2023/12/21 01:00:55;;;;;;;13.95;4.35;;;;;;;;;;4815487;29;20054;-94
2023/12/21 01:03:21;;;;;;;9.60;4.05;;;;;;;;;;4816471;29;20072;-96
2023/12/21 01:05:47;;;;;;;20.83;4.38;;;;;;;;;;4835481;29;20073;-96
2023/12/21 01:08:14;;;;;;;7.60;2.90;;;;;;;;;;4816760;29;20057;-93
2023/12/21 01:10:40;;;;;;;15.95;4.13;;;;;;;;;;4818765;29;20041;-96
2023/12/21 01:13:06;;;;;;;17.48;3.55;;;;;;;;;;4819999;29;20149;-96
2023/12/21 01:15:32;;;;;;;6.88;3.38;;;;;;;;;;4815237;29;20054;-96
2023/12/21 01:17:58;;;;;;;13.68;3.83;;;;;;;;;;4814455;29;20420;-93
2023/12/21 01:20:24;;;;;;;7.50;2.92;;;;;;;;;;4817077;29;20058;-93
2023/12/21 01:22:50;;;;;;;14.27;4.43;;;;;;;;;;4812857;29;20153;-96
2023/12/21 01:25:17;;;;;;;13.32;3.50;;;;;;;;;;4801970;29;20066;-96
2023/12/21 01:27:43;;;;;;;16.48;3.60;;;;;;;;;;4817611;29;20042;-93
2023/12/21 01:30:09;;;;;;;19.40;4.03;;;;;;;;;;4815023;29;20053;-93
2023/12/21 01:32:35;;;;;;;14.90;4.10;;;;;;;;;;4819106;29;20050;-96
2023/12/21 01:35:02;;;;;;;7.50;2.80;;;;;;;;;;4825539;29;20050;-96
2023/12/21 01:37:28;;;;;;;9.57;3.35;;;;;;;;;;4795355;29;20085;-94
2023/12/21 01:39:54;;;;;;;9.77;4.03;;;;;;;;;;4811181;29;20109;-95
2023/12/21 01:42:20;;;;;;;17.70;3.90;;;;;;;;;;4797529;29;20058;-96
2023/12/21 01:44:46;;;;;;;12.23;3.50;;;;;;;;;;4805171;29;20122;-96
2023/12/21 01:47:13;;;;;;;9.63;3.28;;;;;;;;;;4802472;29;20058;-96
2023/12/21 01:49:40;;;;;;;12.65;3.30;;;;;;;;;;4801575;29;20495;-95
2023/12/21 01:52:07;;;;;;;11.82;4.32;;;;;;;;;;4801509;29;20061;-95
2023/12/21 01:54:34;;;;;;;12.90;3.38;;;;;;;;;;4803373;29;21274;-95
2023/12/21 01:57:00;;;;;;;17.13;3.38;;;;;;;;;;4803287;29;20121;-96
2023/12/21 01:59:26;;;;;;;17.67;4.53;;;;;;;;;;4808797;29;20081;-94
2023/12/21 02:01:52;;;;;;;12.68;4.85;;;;;;;;;;4805552;29;20054;-96
2023/12/21 02:04:18;;;;;;;12.60;3.60;;;;;;;;;;4806333;29;20060;-96
2023/12/21 02:06:45;;;;;;;11.93;4.20;;;;;;;;;;4804409;29;20057;-96
2023/12/21 02:09:13;;;;;;;11.82;3.25;;;;;;;;;;4806692;29;20056;-94
2023/12/21 02:11:39;;;;;;;15.65;4.18;;;;;;;;;;4806403;29;20078;-96
2023/12/21 02:14:05;;;;;;;13.45;4.28;;;;;;;;;;4803582;29;20050;-96
2023/12/21 02:16:36;;;;;;;18.77;4.90;;;;;;;;;;4805157;29;20053;-96
2023/12/21 02:19:02;;;;;;;12.60;3.88;;;;;;;;;;4802679;29;20092;-96
2023/12/21 02:21:30;;;;;;;20.25;5.18;;;;;;;;;;4805810;29;20068;-96
2023/12/21 02:23:57;;;;;;;14.20;3.78;;;;;;;;;;4808962;29;20045;-93
2023/12/21 02:26:24;;;;;;;12.82;3.58;;;;;;;;;;4810074;29;20149;-96
2023/12/21 02:28:51;;;;;;;12.00;2.72;;;;;;;;;;4807693;29;20507;-96
2023/12/21 02:31:17;;;;;;;9.30;3.30;;;;;;;;;;4817000;29;20140;-96
2023/12/21 02:33:43;;;;;;;20.40;4.30;;;;;;;;;;4814352;29;20053;-96
2023/12/21 02:36:09;;;;;;;29.40;5.78;;;;;;;;;;4816184;29;20069;-95
2023/12/21 02:38:35;;;;;;;12.60;4.10;;;;;;;;;;4815231;29;20053;-96
2023/12/21 02:41:01;;;;;;;17.00;4.68;;;;;;;;;;4817519;29;20050;-96
2023/12/21 02:43:27;;;;;;;14.95;3.65;;;;;;;;;;4811693;29;20050;-93
2023/12/21 02:45:54;;;;;;;10.73;4.10;;;;;;;;;;4813268;29;20042;-95
2023/12/21 02:48:23;;;;;;;13.93;3.42;;;;;;;;;;4863702;24;20052;-96
2023/12/21 02:50:51;;;;;;;18.05;4.65;;;;;;;;;;4849302;29;20112;-96
2023/12/21 02:53:17;;;;;;;11.48;2.92;;;;;;;;;;4847567;29;20069;-96
2023/12/21 02:55:43;;;;;;;9.70;3.88;;;;;;;;;;4806416;29;20155;-96
2023/12/21 02:58:09;;;;;;;10.60;4.25;;;;;;;;;;4821304;29;20446;-93
2023/12/21 03:00:35;;;;;;;9.00;2.85;;;;;;;;;;4807502;29;20041;-97
2023/12/21 03:03:05;;;;;;;14.38;3.95;;;;;;;;;;4808182;29;20058;-96
2023/12/21 03:05:34;;;;;;;13.55;5.47;;;;;;;;;;4795598;29;20050;-96
2023/12/21 03:08:03;;;;;;;13.27;3.92;;;;;;;;;;4814449;29;20092;-96
2023/12/21 03:10:34;;;;;;;13.45;4.10;;;;;;;;;;4821123;24;20058;-94
2023/12/21 03:13:13;;;;;;;11.38;3.40;;;;;;;;;;4832075;29;20071;-93
2023/12/21 03:21:21;;;;;;;10.45;3.75;;;;;;;;;;4847083;27;20034;-95
2023/12/21 03:24:02;;;;;;;14.90;3.67;;;;;;;;;;4884012;24;20064;-95
2023/12/21 03:26:38;;;;;;;10.70;3.35;;;;;;;;;;4817757;29;20062;-96
2023/12/21 03:29:13;;;;;;;15.30;4.70;;;;;;;;;;4834524;29;20062;-96
2023/12/21 03:31:39;;;;;;;11.55;3.60;;;;;;;;;;4789431;29;20054;-96
2023/12/21 03:34:05;;;;;;;6.38;2.75;;;;;;;;;;4807062;29;20059;-94
2023/12/21 03:36:37;;;;;;;15.40;3.90;;;;;;;;;;4796243;29;20424;-95
2023/12/21 03:39:04;;;;;;;9.80;3.63;;;;;;;;;;4795789;29;20162;-95
2023/12/21 03:41:33;;;;;;;18.60;3.95;;;;;;;;;;4810889;29;20078;-95
2023/12/21 03:43:59;;;;;;;14.52;3.33;;;;;;;;;;4810197;29;20077;-94
2023/12/21 03:46:26;;;;;;;13.32;3.40;;;;;;;;;;4795210;29;20054;-95
2023/12/21 03:48:52;;;;;;;8.40;3.63;;;;;;;;;;4794877;29;20058;-94
2023/12/21 03:51:19;;;;;;;16.05;4.40;;;;;;;;;;4779537;29;20527;-93
2023/12/21 03:53:46;;;;;;;17.60;4.70;;;;;;;;;;4810188;29;20078;-95
2023/12/21 03:56:12;;;;;;;12.50;3.63;;;;;;;;;;4825301;29;20106;-95
2023/12/21 03:58:38;;;;;;;21.48;3.40;;;;;;;;;;4783556;29;20054;-94
2023/12/21 04:01:04;;;;;;;14.10;3.88;;;;;;;;;;4792247;29;20103;-95
2023/12/21 04:03:30;;;;;;;11.05;3.53;;;;;;;;;;4792344;29;20059;-95
2023/12/21 04:05:56;;;;;;;10.65;4.10;;;;;;;;;;4792031;29;20054;-95
2023/12/21 04:08:23;;;;;;;18.67;4.15;;;;;;;;;;4788935;29;20146;-94
2023/12/21 04:10:49;;;;;;;15.73;3.38;;;;;;;;;;4774200;30;20055;-94
2023/12/21 04:13:15;;;;;;;16.23;3.53;;;;;;;;;;4773991;30;20059;-94
2023/12/21 04:15:41;;;;;;;9.55;4.28;;;;;;;;;;4773850;30;20167;-94
2023/12/21 04:18:07;;;;;;;12.30;4.30;;;;;;;;;;4759229;30;20070;-95
2023/12/21 04:20:33;;;;;;;14.50;3.97;;;;;;;;;;4777879;29;20050;-95
2023/12/21 04:22:59;;;;;;;12.02;3.47;;;;;;;;;;4791643;29;20423;-94
2023/12/21 04:25:25;;;;;;;13.40;3.35;;;;;;;;;;4776863;29;20111;-95
2023/12/21 04:27:51;;;;;;;11.75;3.53;;;;;;;;;;4771433;29;20058;-95
2023/12/21 04:30:18;;;;;;;18.92;4.38;;;;;;;;;;4762592;30;20054;-95
2023/12/21 04:32:44;;;;;;;19.80;3.25;;;;;;;;;;4773749;30;20051;-95
2023/12/21 04:35:10;;;;;;;13.15;3.60;;;;;;;;;;4759251;30;20408;-94
2023/12/21 04:37:36;;;;;;;10.75;3.30;;;;;;;;;;4776548;29;20055;-93
2023/12/21 04:40:03;;;;;;;12.55;3.22;;;;;;;;;;4776129;29;20055;-93
2023/12/21 04:42:29;;;;;;;10.38;3.40;;;;;;;;;;4776002;29;20077;-92
2023/12/21 04:44:58;;;;;;;9.48;3.95;;;;;;;;;;4795623;24;20042;-92
2023/12/21 04:47:27;;;;;;;8.93;2.72;;;;;;;;;;4806368;29;20253;-92
2023/12/21 04:50:23;;;;;;;14.75;3.20;;;;;;;;;;4753572;30;20102;-91
2023/12/21 04:53:03;;;;;;;8.88;3.63;;;;;;;;;;4745030;30;20070;-92
2023/12/21 05:01:35;;;;;;;11.38;4.10;;;9.50;99.90;;;;;;4383608;27;20663;-92
2023/12/21 05:15:42;;;;;;;14.65;3.25;;;9.30;99.90;;;;;;4023316;27;20074;-96
2023/12/21 05:18:30;;;;;;;7.65;2.78;;;;;;;;;;4758839;30;20456;-91
2023/12/21 05:21:10;;;;;;;9.52;3.95;;;;;;;;;;4788116;24;20385;-91
2023/12/21 05:27:25;;;;;;;17.00;2.70;;;;;;;;;;4922851;24;20162;-91
2023/12/21 05:30:24;;;;;;;14.88;3.97;;;;;;;;;;4799638;29;20544;-91
2023/12/21 05:33:23;;;;;;;10.30;2.85;;;;;;;;;;4873562;23;20061;-92
2023/12/21 05:35:52;;;;;;;20.60;3.38;;;;;;;;;;4790353;29;20061;-91
2023/12/21 05:38:43;;;;;;;17.45;3.60;;;;;;;;;;4779027;30;20047;-90
2023/12/21 05:41:14;;;;;;;20.77;3.22;;;;;;;;;;4769587;30;20051;-91
2023/12/21 05:43:48;;;;;;;16.95;4.28;;;;;;;;;;4760248;30;20056;-91
2023/12/21 05:46:15;;;;;;;13.52;2.38;;;;;;;;;;4759776;30;20103;-91
2023/12/21 05:48:42;;;;;;;12.85;2.53;;;;;;;;;;4764923;30;20066;-92
2023/12/21 05:51:08;;;;;;;10.98;2.85;;;;;;;;;;4741574;29;20090;-95
2023/12/21 05:53:34;;;;;;;12.02;3.20;;;;;;;;;;4762841;29;20154;-94
2023/12/21 05:56:02;;;;;;;14.60;3.60;;;;;;;;;;4747204;30;20062;-95
2023/12/21 05:58:28;;;;;;;8.15;2.72;;;;;;;;;;4754811;30;20111;-96
2023/12/21 06:00:54;;;;;;;16.50;3.60;;;;;;;;;;4750665;30;20055;-96
2023/12/21 06:03:21;;;;;;;6.47;2.63;;;;;;;;;;4754388;30;20143;-91
2023/12/21 06:05:49;;;;;;;13.93;4.68;;;;;;;;;;4758986;30;20055;-96
2023/12/21 06:08:15;;;;;;;10.45;2.30;;;;;;;;;;4748933;30;20525;-93
2023/12/21 06:10:41;;;;;;;9.95;3.17;;;;;;;;;;4790718;29;20047;-94
2023/12/21 06:13:07;;;;;;;8.45;3.08;;;;;;;;;;4784101;29;20138;-94
2023/12/21 06:15:33;;;;;;;9.23;2.95;;;;;;;;;;4793322;29;20070;-93
2023/12/21 06:17:59;;;;;;;10.55;3.15;;;;;;;;;;4792649;29;20050;-95
2023/12/21 06:20:30;;;;;;;9.52;2.92;;;;;;;;;;4762384;29;20059;-93
2023/12/21 06:22:56;;;;;;;5.10;2.50;;;;;;;;;;4795899;29;20054;-93
2023/12/21 06:25:22;;;;;;;9.55;3.20;;;;;;;;;;4767346;29;20071;-92
2023/12/21 06:27:48;;;;;;;12.88;2.88;;;;;;;;;;4792803;29;20062;-93
2023/12/21 06:30:14;;;;;;;4.13;2.80;;;;;;;;;;4765000;29;20051;-94
2023/12/21 06:32:40;;;;;;;13.43;2.85;;;;;;;;;;4788138;29;20058;-92
2023/12/21 06:35:07;;;;;;;12.93;3.78;;;;;;;;;;4792272;29;20088;-93
2023/12/21 06:37:33;;;;;;;7.78;2.90;;;;;;;;;;4777870;29;20138;-93
2023/12/21 06:39:59;;;;;;;4.35;1.95;;;;;;;;;;4776937;29;20047;-93
2023/12/21 06:42:25;;;;;;;10.55;2.85;;;;;;;;;;4807378;29;20093;-94
2023/12/21 06:44:51;;;;;;;6.60;2.75;;;;;;;;;;4778196;29;20057;-93
2023/12/21 06:47:17;;;;;;;3.85;2.10;;;;;;;;;;4798425;29;20046;-93
2023/12/21 06:49:43;;;;;;;6.72;2.80;;;;;;;;;;4795271;29;20078;-92
2023/12/21 06:52:09;;;;;;;11.27;3.50;;;;;;;;;;4776864;29;20066;-92
2023/12/21 06:54:35;;;;;;;4.97;1.98;;;;;;;;;;4791504;29;20061;-92
2023/12/21 06:57:01;;;;;;;6.60;2.55;;;;;;;;;;4776763;29;20504;-92
2023/12/21 06:59:30;;;;;;;4.13;1.98;;;;;;;;;;4781437;29;20127;-93
2023/12/21 07:01:57;;;;;;;7.10;1.88;;;;;;;;;;4763809;30;20117;-93
2023/12/21 07:04:23;;;;;;;10.45;2.70;;;;;;;;;;4793024;29;20115;-94
2023/12/21 07:06:50;;;;;;;3.70;1.98;;;;;;;;;;4804788;29;20063;-95
2023/12/21 07:09:17;;;;;;;5.85;1.95;;;;;;;;;;4785071;29;20140;-94
2023/12/21 07:11:43;;;;;;;2.47;1.67;;;;;;;;;;4809292;29;20250;-96
2023/12/21 07:14:09;;;;;;;6.00;2.00;;;;;;;;;;4801075;29;20095;-96
2023/12/21 07:16:35;;;;;;;6.10;1.77;;;;;;;;;;4821525;29;20049;-91
2023/12/21 07:19:02;;;;;;;2.72;1.60;;;;;;;;;;4827690;29;20036;-89
2023/12/21 07:21:29;;;;;;;5.15;1.40;;;;;;;;;;4825696;29;20110;-96
2023/12/21 07:23:55;;;;;;;7.60;2.20;;;;;;;;;;4790504;29;20089;-96
2023/12/21 07:26:21;;;;;;;2.35;1.48;;;;;;;;;;4815054;29;20573;-96
2023/12/21 07:28:47;;;;;;;2.20;1.70;;;;;;;;;;4828452;29;20039;-96
2023/12/21 07:31:15;;;;;;;8.77;1.60;;;;;;;;;;4817659;29;20274;-96
2023/12/21 07:33:42;;;;;;;13.75;2.80;;;;;;;;;;4810863;29;20051;-95
2023/12/21 07:36:08;;;;;;;4.13;1.98;;;;;;;;;;4810634;29;20098;-96
2023/12/21 07:38:36;;;;;;;5.63;1.83;;;;;;;;;;4807491;29;20055;-96
2023/12/21 07:41:03;;;;;;;3.50;2.03;;;;;;;;;;4812238;29;20046;-96
2023/12/21 07:43:30;;;;;;;4.30;1.85;;;;;;;;;;4792118;29;20060;-95
2023/12/21 07:45:56;;;;;;;7.15;2.45;;;;;;;;;;4787681;29;20079;-96
2023/12/21 07:48:22;;;;;;;4.93;1.67;;;;;;;;;;4779477;29;20063;-93
2023/12/21 07:50:48;;;;;;;8.07;2.85;;;;;;;;;;4794060;29;20062;-93
2023/12/21 07:53:14;;;;;;;13.10;2.55;;;;;;;;;;4810242;29;20123;-93
2023/12/21 07:55:40;;;;;;;4.63;2.15;;;;;;;;;;4764286;30;20055;-92
2023/12/21 07:58:06;;;;;;;7.05;2.25;;;;;;;;;;4790776;29;20062;-92
2023/12/21 08:00:33;;;;;;;7.57;2.95;;;;;;;;;;4781363;29;20063;-94
2023/12/21 08:02:59;;;;;;;12.90;3.10;;;;;;;;;;4787310;29;20130;-90
2023/12/21 08:05:25;;;;;;;8.15;3.03;;;;;;;;;;4793248;29;20051;-94
2023/12/21 08:07:51;;;;;;;9.23;3.72;;;;;;;;;;4794378;29;20058;-94
2023/12/21 08:10:18;;;;;;;11.52;3.15;;;;;;;;;;4809413;29;20093;-94
2023/12/21 08:12:44;;;;;;;13.90;3.88;;;;;;;;;;4779883;29;20165;-94
2023/12/21 08:15:10;;;;;;;15.63;4.15;;;;;;;;;;4770059;29;20042;-91
2023/12/21 08:17:37;;;;;;;19.10;4.07;;;;;;;;;;4767344;29;20055;-93
2023/12/21 08:20:06;;;;;;;16.60;3.85;;;;;;;;;;4759136;30;20062;-95
2023/12/21 08:22:32;;;;;;;11.30;3.47;;;;;;;;;;4758902;30;20138;-95
2023/12/21 08:25:01;;;;;;;22.10;4.15;;;;;;;;;;4761385;24;20058;-91
2023/12/21 08:27:41;;;;;;;10.23;3.55;;;;;;;;;;4825162;29;20485;-92
2023/12/21 08:30:13;;;;;;;12.80;5.03;;;;;;;;;;4822646;29;20396;-91
2023/12/21 08:32:41;;;;;;;11.63;3.58;;;;;;;;;;4834575;29;20090;-91
2023/12/21 08:35:16;;;;;;;10.15;4.60;;;;;;;;;;4834271;24;20045;-91
2023/12/21 08:37:46;;;;;;;15.73;5.32;;;;;;;;;;4805343;29;20136;-91
2023/12/21 08:40:13;;;;;;;10.50;3.60;;;;;;;;;;4795022;30;20146;-92
2023/12/21 08:42:41;;;;;;;13.25;3.97;;;;;;;;;;4766562;30;20553;-90
2023/12/21 08:45:35;;;;;;;16.30;3.22;;;;;;;;;;4762800;30;20055;-91
2023/12/21 08:48:28;;;;;;;11.02;4.13;;;;;;;;;;4744959;30;20057;-90
2023/12/21 08:52:18;;;;;;;16.45;2.88;;;10.10;99.90;;;;;;4869861;24;20121;-91
2023/12/21 08:58:27;;;;;;;15.55;4.22;;;;;;;;;;4790783;29;20047;-90
2023/12/21 09:01:07;;;;;;;12.90;3.20;;;;;;;;;;4796756;24;20095;-91
2023/12/21 09:04:05;;;;;;;6.85;2.88;;;;;;;;;;4814349;29;20053;-91
2023/12/21 09:06:39;;;;;;;11.63;3.05;;;;;;;;;;4989174;24;20050;-91
2023/12/21 09:09:13;;;;;;;11.73;3.05;;;;;;;;;;4809142;29;20119;-94
2023/12/21 09:11:49;;;;;;;13.23;3.25;;;;;;;;;;4831305;29;20084;-92
2023/12/21 09:14:24;;;;;;;16.55;3.95;;;;;;;;;;4814218;29;20050;-96
2023/12/21 09:20:24;;;;;;;9.13;3.00;;;;;;;;;;4876580;24;20059;-95
2023/12/21 09:22:57;;;;;;;23.27;4.10;;;;;;;;;;4759058;30;20059;-94
2023/12/21 09:28:13;;;;;;;12.20;2.75;;;;;;;;;;4919477;23;20080;-91
2023/12/21 09:31:09;;;;;;;15.43;3.92;;;;;;;;;;4843504;29;20111;-92
2023/12/21 09:46:56;;;;;;;13.98;3.65;;;;;;;;;;4970475;23;20082;-93
2023/12/21 09:49:47;;;;;;;9.63;3.20;;;;;;;;;;4826966;29;20065;-93
2023/12/21 09:52:55;;;;;;;13.40;3.83;;;;;;;;;;4787205;29;20034;-91
2023/12/21 09:55:55;;;;;;;12.95;2.95;;;;;;;;;;4832404;29;20064;-94
2023/12/21 09:58:42;;;;;;;12.50;4.10;;;;;;;;;;4811958;29;20059;-94
2023/12/21 10:01:11;;;;;;;18.60;2.70;;;;;;;;;;4797332;29;20026;-96
2023/12/21 10:03:40;;;;;;;5.05;2.40;;;;;;;;;;4812619;29;20062;-95
2023/12/21 10:06:26;;;;;;;11.52;3.28;;;;;;;;;;4828027;29;20523;-95
2023/12/21 10:08:55;;;;;;;10.95;2.80;;;;;;;;;;4809288;29;20138;-93
2023/12/21 10:11:21;;;;;;;6.22;2.53;;;;;;;;;;4781269;29;20051;-94
2023/12/21 10:13:57;;;;;;;17.40;2.97;;;;;;;;;;4779956;29;20058;-93
2023/12/21 10:16:26;;;;;;;5.35;2.95;;;;;;;;;;4784079;29;20145;-92
2023/12/21 10:26:33;;;;;;;12.52;3.47;;;;;;;;;;4665058;30;20058;-96
2023/12/21 12:26:44;;;;;;;10.93;3.72;;;;;;;;;;4777277;30;20055;-96
2023/12/21 12:33:04;;;;;;;;;;;;;;;;;;;;;
2023/12/21 12:36:11;;;;;;;22.67;6.43;;;;;;;;;;4755976;30;20048;-96
2023/12/21 12:38:54;;;;;;;19.88;5.15;;;;;;;;;;4756103;30;20224;-95
2023/12/21 12:41:29;;;;;;;15.43;4.53;;;;;;;;;;4790827;29;20051;-96
2023/12/21 12:44:07;;;;;;;20.67;3.60;;;;;;;;;;4774892;30;20437;-96
2023/12/21 12:46:33;;;;;;;13.20;3.65;;;;;;;;;;4778660;30;20063;-96
2023/12/21 12:49:00;;;;;;;17.48;4.93;;;;;;;;;;4776437;29;20505;-96
2023/12/21 12:51:34;;;;;;;27.92;5.38;;;;;;;;;;4777214;29;20092;-94
2023/12/21 12:54:08;;;;;;;17.77;4.03;;;;;;;;;;4762926;29;20459;-95
2023/12/21 12:56:56;;;;;;;25.48;5.40;;;;;;;;;;4777440;29;20054;-94
2023/12/21 12:59:25;;;;;;;11.00;3.03;;;;;;;;;;4778638;29;20055;-96
2023/12/21 13:01:51;;;;;;;9.05;2.75;;;;;;;;;;4776769;29;20057;-96
2023/12/21 13:04:20;;;;;;;13.15;4.20;;;;;;;;;;4776442;29;20115;-94
2023/12/21 13:06:51;;;;;;;17.73;4.30;;;;;;;;;;4761124;29;20093;-94
2023/12/21 13:09:23;;;;;;;8.80;2.50;;;;;;;;;;4776767;29;20571;-94
2023/12/21 13:11:54;;;;;;;10.23;2.92;;;;;;;;;;4776609;29;20581;-95
2023/12/21 13:14:21;;;;;;;11.85;2.47;;;;;;;;;;4776102;29;20053;-96
2023/12/21 13:16:47;;;;;;;10.38;2.90;;;;;;;;;;4761277;29;20088;-95
2023/12/21 13:19:21;;;;;;;6.63;1.90;;;;;;;;;;4776452;29;20055;-94
2023/12/21 13:21:49;;;;;;;10.63;3.13;;;;;;;;;;4775949;29;20067;-93
2023/12/21 13:24:15;;;;;;;12.90;2.97;;;;;;;;;;4775611;29;20492;-96
2023/12/21 13:26:41;;;;;;;18.15;4.43;;;;;;;;;;4775977;29;20213;-93
2023/12/21 13:29:08;;;;;;;21.13;3.97;;;;;;;;;;4788145;29;20059;-94
2023/12/21 13:31:34;;;;;;;16.10;4.20;;;;;;;;;;4760516;29;20523;-94
2023/12/21 13:34:01;;;;;;;17.35;3.60;;;;;;;;;;4790244;29;20118;-94
2023/12/21 13:36:27;;;;;;;29.70;5.70;;;;;;;;;;4790227;29;20059;-93
2023/12/21 13:38:56;;;;;;;26.10;5.18;;;;;;;;;;4760659;29;20626;-94
2023/12/21 13:41:23;;;;;;;38.25;5.28;;;;;;;;;;4774947;29;20508;-94
2023/12/21 13:43:49;;;;;;;14.25;3.20;;;;;;;;;;4775619;29;20143;-95
2023/12/21 13:46:21;;;;;;;9.65;3.85;;;;;;;;;;4775259;29;20055;-95
2023/12/21 13:48:49;;;;;;;25.98;4.80;;;;;;;;;;4775777;29;20139;-96
2023/12/21 13:51:15;;;;;;;19.25;3.53;;;;;;;;;;4775902;29;20115;-96
2023/12/21 13:53:45;;;;;;;6.15;1.85;;;;;;;;;;4762723;29;20053;-96
2023/12/21 13:56:27;;;;;;;;;;;;;;;;;;;;;
2023/12/21 13:59:06;;;;;;;11.90;3.25;;;;;;;;;;4779989;29;20504;-95
2023/12/21 14:01:38;;;;;;;10.00;1.85;;;;;;;;;;4776032;29;20046;-96
2023/12/21 14:04:04;;;;;;;4.60;1.90;;;;;;;;;;4760438;29;20523;-96
2023/12/21 15:01:15;;;;;;;21.35;4.45;;;;;;;;;;4806722;29;20074;-96
2023/12/21 15:04:06;;;;;;;27.17;5.35;;;;;;;;;;4754846;29;20063;-96
2023/12/21 15:06:40;;;;;;;14.85;4.18;;;;;;;;;;4778939;29;20577;-96
2023/12/21 15:09:09;;;;;;;13.98;4.30;;;;;;;;;;4778266;29;20055;-95
2023/12/21 15:11:40;;;;;;;19.67;3.85;;;;;;;;;;4777841;29;20055;-95
2023/12/21 15:14:13;;;;;;;30.60;7.60;;;;;;;;;;4782773;29;20127;-96
2023/12/21 15:16:39;;;;;;;22.90;4.40;;;;;;;;;;4777972;29;20050;-94
2023/12/21 15:19:10;;;;;;;19.63;4.97;;;;;;;;;;4778331;29;20054;-96
2023/12/21 15:21:39;;;;;;;15.07;5.18;;;;;;;;;;4777452;29;20148;-95
2023/12/21 15:24:05;;;;;;;16.63;4.93;;;;;;;;;;4775640;29;20496;-94
2023/12/21 15:26:32;;;;;;;21.30;4.25;;;;;;;;;;4797836;29;20074;-96
2023/12/21 15:29:01;;;;;;;11.13;4.13;;;;;;;;;;4776740;29;20558;-95
2023/12/21 15:31:30;;;;;;;18.40;5.78;;;;;;;;;;4777551;29;20054;-96
2023/12/21 15:34:03;;;;;;;18.67;5.28;;;;;;;;;;4776580;29;20473;-96
2023/12/21 15:36:33;;;;;;;23.55;5.82;;;;;;;;;;4775983;29;20043;-94
2023/12/21 15:38:59;;;;;;;23.45;4.72;;;;;;;;;;4776313;29;20075;-93
2023/12/21 15:41:27;;;;;;;25.73;4.43;;;;;;;;;;4776470;29;20099;-94
2023/12/21 15:43:57;;;;;;;15.50;5.07;;;;;;;;;;4778855;29;20066;-95
2023/12/21 15:46:23;;;;;;;19.38;7.97;;;;;;;;;;4801679;29;20124;-93
2023/12/21 15:48:58;;;;;;;16.90;5.78;;;;;;;;;;4773898;29;20057;-94
2023/12/21 15:51:35;;;;;;;23.50;7.00;;;;;;;;;;4772914;29;20051;-96
2023/12/21 15:54:07;;;;;;;21.95;5.53;;;;;;;;;;4777141;29;20072;-96
2023/12/21 15:56:39;;;;;;;26.05;7.32;;;;;;;;;;4776114;29;20058;-94
2023/12/21 15:59:14;;;;;;;14.82;4.53;;;;;;;;;;4792872;29;20082;-96
2023/12/21 16:01:57;;;;;;;11.77;3.70;;;;;;;;;;4800206;29;20058;-95
2023/12/21 16:04:27;;;;;;;11.97;4.07;;;;;;;;;;4765116;29;20078;-95
2023/12/21 16:07:08;;;;;;;21.48;4.60;;;;;;;;;;4792132;29;20077;-94
2023/12/21 16:09:37;;;;;;;14.52;3.90;;;;;;;;;;4751058;29;20046;-95
2023/12/21 16:12:09;;;;;;;17.65;5.00;;;;;;;;;;4798068;29;20059;-95
2023/12/21 16:14:44;;;;;;;25.25;5.35;;;;;;;;;;4778398;29;20058;-95
2023/12/21 16:17:12;;;;;;;16.77;5.25;;;;;;;;;;4794042;29;20051;-95
2023/12/21 16:19:39;;;;;;;22.20;7.00;;;;;;;;;;4791367;29;20142;-96
2023/12/21 16:22:31;;;;;;;39.58;8.50;;;;;;;;;;4776708;29;20065;-96
2023/12/21 16:25:15;;;;;;;;;;;;;;;;;;;;;
2023/12/21 16:28:09;;;;;;;;;;;;;;;;;;;;;
2023/12/21 16:30:44;;;;;;;31.90;8.20;;;;;;;;;;4795704;29;20110;-95
2023/12/21 16:33:19;;;;;;;35.78;6.30;;;;;;;;;;4780273;29;20079;-95
2023/12/21 16:36:25;;;;;;;30.70;8.18;;;;;;;;;;4783561;29;20055;-96
2023/12/21 16:42:07;;;;;;;28.42;6.43;;;;;;;;;;4763283;29;20167;-95
2023/12/21 16:47:55;;;;;;;21.70;5.90;;;;;;;;;;4771685;29;20059;-95
2023/12/21 16:50:29;;;;;;;23.08;5.15;;;;;;;;;;4775538;29;20043;-96
2023/12/21 16:53:00;;;;;;;20.85;5.32;;;;;;;;;;4774015;29;20420;-96
2023/12/21 16:55:27;;;;;;;17.73;5.13;;;;;;;;;;4787598;29;20047;-95
2023/12/21 16:57:53;;;;;;;26.63;6.18;;;;;;;;;;4772438;30;20056;-94
2023/12/21 17:00:22;;;;;;;16.13;4.65;;;;;;;;;;4775661;29;20061;-96
2023/12/21 17:02:56;;;;;;;26.98;5.55;;;;;;;;;;4795443;29;20063;-94
2023/12/21 17:05:24;;;;;;;19.70;5.78;;;;;;;;;;4757865;29;20106;-95
2023/12/21 17:07:53;;;;;;;19.02;4.28;;;;;;;;;;4769762;29;20051;-95
2023/12/21 17:10:22;;;;;;;25.00;4.45;;;;;;;;;;4783944;29;20407;-95
2023/12/21 17:12:55;;;;;;;16.88;4.82;;;;;;;;;;4771773;29;20043;-95
2023/12/21 17:15:23;;;;;;;22.58;6.35;;;;;;;;;;4771632;29;20050;-95
2023/12/21 17:17:50;;;;;;;31.77;7.22;;;;;;;;;;4772409;29;20061;-94
2023/12/21 17:20:18;;;;;;;21.50;6.28;;;;;;;;;;4772960;29;20047;-94
2023/12/21 17:22:47;;;;;;;26.70;6.30;;;;;;;;;;4771403;29;20061;-95
2023/12/21 17:25:13;;;;;;;40.47;10.95;;;;;;;;;;4771900;29;20066;-94
2023/12/21 17:27:39;;;;;;;33.25;6.85;;;;;;;;;;4774479;29;20038;-93
2023/12/21 17:30:11;;;;;;;42.78;7.97;;;;;;;;;;4772662;29;20070;-94
2023/12/21 17:32:40;;;;;;;16.15;5.90;;;;;;;;;;4772820;29;20086;-94
2023/12/21 17:35:07;;;;;;;18.08;6.55;;;;;;;;;;4771603;29;20046;-93
2023/12/21 17:37:36;;;;;;;14.30;5.15;;;;;;;;;;4772198;29;20058;-95
2023/12/21 17:40:13;;;;;;;23.20;5.30;;;;;;;;;;4786782;29;20074;-94
2023/12/21 17:42:42;;;;;;;24.52;5.82;;;;;;;;;;4793157;29;20086;-94
2023/12/21 17:45:08;;;;;;;26.63;6.32;;;;;;;;;;4774426;29;20058;-94
2023/12/21 17:47:36;;;;;;;22.92;5.72;;;;;;;;;;4776956;29;20093;-94
2023/12/21 17:50:04;;;;;;;27.48;5.78;;;;;;;;;;4776910;29;20142;-95
2023/12/21 17:52:43;;;;;;;18.35;5.88;;;;;;;;;;4785587;29;20047;-93
2023/12/21 17:55:19;;;;;;;20.92;4.82;;;;;;;;;;4775136;29;20125;-94
2023/12/21 17:57:45;;;;;;;32.08;5.72;;;;;;;;;;4770086;29;20046;-95
2023/12/21 18:00:11;;;;;;;32.28;7.03;;;;;;;;;;4775135;29;20117;-96
2023/12/21 18:02:40;;;;;;;23.48;6.18;;;;;;;;;;4778810;29;20133;-95
2023/12/21 18:05:09;;;;;;;41.08;6.97;;;;;;;;;;4775649;29;20509;-95
2023/12/21 18:07:35;;;;;;;23.38;8.00;;;;;;;;;;4792490;29;20500;-94
2023/12/21 18:10:02;;;;;;;30.63;6.85;;;;;;;;;;4778124;29;20209;-95
2023/12/21 18:12:32;;;;;;;27.75;7.57;;;;;;;;;;4775646;29;20114;-94
2023/12/21 18:14:58;;;;;;;26.77;6.72;;;;;;;;;;4783275;29;20078;-94
2023/12/21 18:17:24;;;;;;;35.70;7.75;;;;;;;;;;4791635;29;20469;-95
2023/12/21 18:19:50;;;;;;;27.77;7.13;;;;;;;;;;4774867;29;20051;-96
2023/12/21 18:22:16;;;;;;;18.98;6.18;;;;;;;;;;4762306;29;20063;-93
2023/12/21 18:24:43;;;;;;;25.67;5.22;;;;;;;;;;4772067;29;20504;-94
2023/12/21 18:27:10;;;;;;;27.10;4.88;;;;;;;;;;4786612;29;20584;-93
2023/12/21 18:29:36;;;;;;;24.40;5.15;;;;;;;;;;4776579;29;20137;-94
2023/12/21 18:32:02;;;;;;;23.08;6.35;;;;;;;;;;4773275;29;20051;-93
2023/12/21 18:34:29;;;;;;;24.00;5.70;;;;;;;;;;4789764;29;20055;-93
2023/12/21 18:36:56;;;;;;;16.50;5.80;;;;;;;;;;4776181;29;20082;-93
2023/12/21 18:39:22;;;;;;;25.30;5.85;;;;;;;;;;4780449;29;20055;-93
2023/12/21 18:41:49;;;;;;;27.65;5.25;;;;;;;;;;4777053;29;20554;-93
2023/12/21 18:44:15;;;;;;;27.95;6.53;;;;;;;;;;4777516;29;20122;-93
2023/12/21 18:46:42;;;;;;;18.90;4.70;;;;;;;;;;4784573;29;20062;-93
2023/12/21 18:49:09;;;;;;;33.67;5.60;;;;;;;;;;4792065;29;20516;-93
2023/12/21 18:51:35;;;;;;;35.15;7.55;;;;;;;;;;4790829;29;20119;-93
2023/12/21 18:54:02;;;;;;;29.23;7.53;;;;;;;;;;4770558;30;20390;-95